Time;durP1;ratioP1;P1;durP2;ratioP2;P2;SDS_P1;SDS_P2;PMS_P1;PMS_P2;Temp;Humidity;BMP_temperature;BMP_pressure;BME280_temperature;BME280_humidity;BME280_pressure;Samples;Min_cycle;Max_cycle;Signal;HPM_P1;HPM_P2
2023/03/28 00:00:34;;;;;;;;;;;;;;;1.23;87.21;97269.63;5113902;28;20395;-70
2023/03/28 00:03:00;;;;;;;;;;;;;;;1.21;86.85;97267.97;5113567;28;20020;-70
2023/03/28 00:05:26;;;;;;;;;;;;;;;1.20;87.32;97268.94;5113591;28;20448;-70
2023/03/28 00:07:53;;;;;;;;;;;;;;;1.20;87.84;97278.47;5114447;28;19941;-71
2023/03/28 00:10:19;;;;;;;;;;;;;;;1.20;88.08;97281.06;5114386;28;19948;-71
2023/03/28 00:12:45;;;;;;;;;;;;;;;1.20;88.27;97278.47;5113578;28;20337;-69
2023/03/28 00:15:11;;;;;;;;;;;;;;;1.22;88.39;97289.47;5114422;28;19940;-71
2023/03/28 00:17:40;;;;;;;;;;;;;;;1.23;88.10;97278.19;5113525;28;19937;-70
2023/03/28 00:20:09;;;;;;;;;;;;;;;1.25;88.28;97280.63;5113406;28;19983;-70
2023/03/28 00:22:36;;;;;;;;;;;;;;;1.25;89.60;97299.53;5113452;28;19950;-70
2023/03/28 00:25:06;;;;;;;;;;;;;;;1.26;88.67;97298.59;5115884;28;20340;-70
2023/03/28 00:27:33;;;;;;;;;;;;;;;1.25;89.03;97294.34;5117895;28;19946;-70
2023/03/28 00:29:59;;;;;;;;;;;;;;;1.24;88.69;97297.06;5117106;28;19948;-72
2023/03/28 00:32:25;;;;;;;;;;;;;;;1.22;88.04;97292.06;5117113;28;19943;-75
2023/03/28 00:34:51;;;;;;;;;;;;;;;1.18;88.29;97298.47;5117810;28;20476;-76
2023/03/28 00:37:17;;;;;;;;;;;;;;;1.15;88.91;97293.56;5116904;28;19960;-75
2023/03/28 00:39:48;;;;;;;;;;;;;;;1.15;89.10;97294.34;5117694;28;19961;-75
2023/03/28 00:42:16;;;;;;;;;;;;;;;1.14;87.66;97286.78;5116412;28;19948;-75
2023/03/28 00:44:42;;;;;;;;;;;;;;;1.14;88.73;97300.50;5117152;28;20397;-75
2023/03/28 00:47:25;;;;;;;;;;;;;;;1.17;89.38;97307.16;5117323;28;19980;-75
2023/03/28 00:50:12;;;;;;;;;;;;;;;1.15;88.96;97299.53;5116285;28;19949;-70
2023/03/28 00:52:51;;;;;;;;;;;;;;;1.18;89.34;97306.22;5115090;28;19944;-72
2023/03/28 00:55:35;;;;;;;;;;;;;;;1.18;89.87;97309.59;5117176;28;19939;-73
2023/03/28 00:58:06;;;;;;;;;;;;;;;1.21;89.81;97304.16;5116477;28;19946;-72
2023/03/28 01:00:33;;;;;;;;;;;;;;;1.22;90.04;97307.56;5117024;28;19951;-72
2023/03/28 01:03:01;;;;;;;;;;;;;;;1.24;89.44;97307.41;5116289;28;19967;-72
2023/03/28 01:05:29;;;;;;;;;;;;;;;1.26;90.00;97306.34;5116415;28;20407;-72
2023/03/28 01:07:58;;;;;;;;;;;;;;;1.26;89.43;97314.09;5116956;28;19951;-74
2023/03/28 01:10:24;;;;;;;;;;;;;;;1.27;89.65;97320.88;5115636;28;19941;-68
2023/03/28 01:12:51;;;;;;;;;;;;;;;1.27;89.14;97313.13;5116899;28;19954;-68
2023/03/28 01:15:16;;;;;;;;;;;;;;;1.27;89.20;97310.53;5117202;28;20391;-69
2023/03/28 01:17:45;;;;;;;;;;;;;;;1.27;89.08;97310.53;5116261;28;19939;-68
2023/03/28 01:20:12;;;;;;;;;;;;;;;1.26;89.41;97314.09;5116173;28;19966;-69
2023/03/28 01:22:56;;;;;;;;;;;;;;;1.25;88.88;97306.47;5116131;28;19941;-68
2023/03/28 01:25:41;;;;;;;;;;;;;;;1.23;89.04;97310.97;5116382;28;20033;-71
2023/03/28 01:28:33;;;;;;;;;;;;;;;1.20;88.29;97309.47;5116157;28;20388;-72
2023/03/28 01:31:28;;;;;;;;;;;;;;;1.15;88.83;97317.63;5100124;28;19947;-73
2023/03/28 01:34:09;;;;;;;;;;;;;;;1.14;89.13;97321.16;5116594;28;19969;-72
2023/03/28 01:36:44;;;;;;;;;;;;;;;1.13;88.51;97319.50;5114989;28;19974;-72
2023/03/28 01:39:11;;;;;;;;;;;;;;;1.12;89.08;97320.47;5116212;28;19962;-72
2023/03/28 01:41:45;;;;;;;;;;;;;;;1.11;89.39;97326.59;5115471;28;19950;-72
2023/03/28 01:44:20;;;;;;;;;;;;;;;1.11;89.14;97325.78;5116263;28;19950;-71
2023/03/28 01:46:58;;;;;;;;;;;;;;;1.10;88.76;97317.22;5116313;28;19952;-71
2023/03/28 01:50:02;;;;;;;;;;;;;;;1.09;88.63;97314.75;5114595;28;19941;-71
2023/03/28 01:52:50;;;;;;;;;;;;;;;1.05;88.88;97309.06;5055790;28;19973;-71
2023/03/28 01:55:19;;;;;;;;;;;;;;;1.04;87.94;97299.69;5098402;28;19967;-71
2023/03/28 01:57:56;;;;;;;;;;;;;;;1.01;87.90;97305.13;5115180;28;19949;-71
2023/03/28 02:00:28;;;;;;;;;;;;;;;0.98;88.05;97302.81;5116104;28;19965;-71
2023/03/28 02:03:01;;;;;;;;;;;;;;;0.95;88.57;97309.06;5113551;28;19978;-74
2023/03/28 02:05:30;;;;;;;;;;;;;;;0.93;88.46;97312.75;5115852;28;19950;-69
2023/03/28 02:07:57;;;;;;;;;;;;;;;0.91;88.47;97318.03;5114965;28;19944;-69
2023/03/28 02:10:24;;;;;;;;;;;;;;;0.88;88.18;97307.16;5115043;28;19938;-69
2023/03/28 02:12:56;;;;;;;;;;;;;;;0.86;87.88;97314.22;5115262;28;19946;-69
2023/03/28 02:15:23;;;;;;;;;;;;;;;0.83;87.81;97311.91;5115550;28;20408;-69
2023/03/28 02:17:52;;;;;;;;;;;;;;;0.79;87.76;97301.84;5115648;28;19952;-69
2023/03/28 02:20:20;;;;;;;;;;;;;;;0.77;87.51;97311.50;5115214;28;19960;-74
2023/03/28 02:22:49;;;;;;;;;;;;;;;0.75;87.65;97307.41;5115577;28;19945;-71
2023/03/28 02:25:15;;;;;;;;;;;;;;;0.72;87.94;97307.69;5115131;28;19946;-73
2023/03/28 02:27:42;;;;;;;;;;;;;;;0.70;87.68;97305.25;5114617;28;19939;-72
2023/03/28 02:30:08;;;;;;;;;;;;;;;0.67;87.35;97315.03;5114598;28;19939;-72
2023/03/28 02:32:34;;;;;;;;;;;;;;;0.65;87.40;97311.75;5115023;28;19949;-72
2023/03/28 02:35:03;;;;;;;;;;;;;;;0.62;87.18;97310.25;5114535;28;20450;-72
2023/03/28 02:37:38;;;;;;;;;;;;;;;0.59;87.08;97307.97;5114048;28;19963;-72
2023/03/28 02:40:28;;;;;;;;;;;;;;;0.55;86.92;97307.41;5113987;28;19960;-71
2023/03/28 02:43:09;;;;;;;;;;;;;;;0.51;87.61;97308.63;5115020;28;19938;-70
2023/03/28 02:45:53;;;;;;;;;;;;;;;0.49;87.53;97307.94;5113056;28;19940;-70
2023/03/28 02:48:26;;;;;;;;;;;;;;;0.45;87.62;97316.88;5096654;28;19942;-70
2023/03/28 02:51:05;;;;;;;;;;;;;;;0.42;87.14;97306.84;5113139;28;19946;-70
2023/03/28 02:53:51;;;;;;;;;;;;;;;0.40;87.24;97308.75;5114148;28;19949;-69
2023/03/28 02:56:22;;;;;;;;;;;;;;;0.37;87.19;97309.81;5112993;28;20314;-69
2023/03/28 02:58:54;;;;;;;;;;;;;;;0.32;87.18;97308.59;5115145;28;20307;-70
2023/03/28 03:01:20;;;;;;;;;;;;;;;0.29;87.81;97317.38;5114137;28;19977;-72
2023/03/28 03:03:48;;;;;;;;;;;;;;;0.28;87.17;97326.09;5097063;28;19951;-70
2023/03/28 03:06:16;;;;;;;;;;;;;;;0.26;87.24;97322.81;5114288;28;19959;-72
2023/03/28 03:08:42;;;;;;;;;;;;;;;0.25;87.22;97312.63;5114290;28;19942;-72
2023/03/28 03:11:08;;;;;;;;;;;;;;;0.23;86.85;97317.09;5114242;28;20318;-71
2023/03/28 03:13:34;;;;;;;;;;;;;;;0.20;87.26;97325.91;5114734;28;19946;-72
2023/03/28 03:16:00;;;;;;;;;;;;;;;0.17;87.46;97328.78;5114244;28;19950;-71
2023/03/28 03:18:26;;;;;;;;;;;;;;;0.16;86.88;97311.66;5114996;28;19952;-74
2023/03/28 03:20:52;;;;;;;;;;;;;;;0.13;87.48;97320.47;5114754;28;19942;-75
2023/03/28 03:23:18;;;;;;;;;;;;;;;0.11;87.42;97306.09;5114712;28;19947;-75
2023/03/28 03:25:44;;;;;;;;;;;;;;;0.09;87.58;97311.38;5114349;28;20004;-75
2023/03/28 03:28:10;;;;;;;;;;;;;;;0.07;87.29;97302.13;5114077;28;19945;-75
2023/03/28 03:30:36;;;;;;;;;;;;;;;0.06;87.26;97296.13;5114082;28;19946;-75
2023/03/28 03:33:03;;;;;;;;;;;;;;;0.06;87.73;97310.81;5114014;28;19939;-75
2023/03/28 03:35:32;;;;;;;;;;;;;;;0.04;87.65;97305.75;5114032;28;20387;-72
2023/03/28 03:37:58;;;;;;;;;;;;;;;0.03;87.52;97303.34;5114000;28;19948;-69
2023/03/28 03:40:24;;;;;;;;;;;;;;;0.02;87.94;97307.66;5114344;28;19961;-70
2023/03/28 03:42:50;;;;;;;;;;;;;;;-0.01;87.81;97305.34;5114529;28;19952;-69
2023/03/28 03:45:16;;;;;;;;;;;;;;;-0.02;87.50;97304.53;5112666;28;19947;-69
2023/03/28 03:47:42;;;;;;;;;;;;;;;-0.04;87.50;97313.38;5114479;28;19937;-69
2023/03/28 03:50:08;;;;;;;;;;;;;;;-0.05;87.65;97314.28;5113878;28;19936;-69
2023/03/28 03:52:34;;;;;;;;;;;;;;;-0.08;87.06;97310.22;5114703;28;19942;-74
2023/03/28 03:55:00;;;;;;;;;;;;;;;-0.11;87.59;97307.06;5113898;28;20427;-75
2023/03/28 03:57:26;;;;;;;;;;;;;;;-0.12;87.66;97313.19;5114642;28;19948;-75
2023/03/28 03:59:52;;;;;;;;;;;;;;;-0.16;87.47;97306.66;5113609;28;20003;-75
2023/03/28 04:02:18;;;;;;;;;;;;;;;-0.17;87.38;97312.75;5116617;28;19974;-74
2023/03/28 04:04:46;;;;;;;;;;;;;;;-0.19;88.06;97320.59;5118275;28;19942;-74
2023/03/28 04:07:12;;;;;;;;;;;;;;;-0.21;87.83;97307.03;5118154;28;19939;-75
2023/03/28 04:09:38;;;;;;;;;;;;;;;-0.22;87.88;97318.28;5116315;28;19955;-75
2023/03/28 04:12:05;;;;;;;;;;;;;;;-0.23;87.36;97324.41;5117593;28;19962;-72
2023/03/28 04:14:31;;;;;;;;;;;;;;;-0.26;88.16;97322.88;5116854;28;20325;-69
2023/03/28 04:16:56;;;;;;;;;;;;;;;-0.26;88.35;97332.38;5118119;28;19948;-70
2023/03/28 04:19:24;;;;;;;;;;;;;;;-0.28;87.84;97326.53;5116206;28;19961;-70
2023/03/28 04:21:51;;;;;;;;;;;;;;;-0.30;87.86;97329.22;5117385;28;20294;-69
2023/03/28 04:24:19;;;;;;;;;;;;;;;-0.33;87.74;97328.69;5117495;28;20412;-69
2023/03/28 04:26:49;;;;;;;;;;;;;;;-0.36;88.34;97326.34;5117834;28;19953;-69
2023/03/28 04:29:18;;;;;;;;;;;;;;;-0.38;88.46;97333.41;5117264;28;19939;-75
2023/03/28 04:31:48;;;;;;;;;;;;;;;-0.39;88.29;97332.59;5117901;28;19950;-69
2023/03/28 04:34:15;;;;;;;;;;;;;;;-0.41;87.45;97334.47;5117757;28;19941;-69
2023/03/28 04:36:42;;;;;;;;;;;;;;;-0.41;87.67;97332.69;5117359;28;19953;-69
2023/03/28 04:39:08;;;;;;;;;;;;;;;-0.41;88.13;97345.59;5117546;28;20335;-69
2023/03/28 04:41:34;;;;;;;;;;;;;;;-0.44;88.38;97343.28;5116962;28;19951;-70
2023/03/28 04:44:00;;;;;;;;;;;;;;;-0.45;88.13;97344.22;5117782;28;19950;-70
2023/03/28 04:46:27;;;;;;;;;;;;;;;-0.47;87.77;97345.28;5115706;28;19948;-70
2023/03/28 04:48:53;;;;;;;;;;;;;;;-0.48;87.83;97351.41;5117585;28;20297;-75
2023/03/28 04:51:19;;;;;;;;;;;;;;;-0.50;88.21;97345.56;5116744;28;19942;-75
2023/03/28 04:53:45;;;;;;;;;;;;;;;-0.52;88.47;97355.97;5116621;28;19944;-74
2023/03/28 04:56:12;;;;;;;;;;;;;;;-0.52;88.85;97352.59;5116091;28;19978;-75
2023/03/28 04:58:39;;;;;;;;;;;;;;;-0.54;88.31;97352.69;5116649;28;19940;-74
2023/03/28 05:01:09;;;;;;;;;;;;;;;-0.55;88.59;97353.63;5116312;28;19971;-74
2023/03/28 05:03:35;;;;;;;;;;;;;;;-0.55;87.88;97343.31;5117414;28;19955;-74
2023/03/28 05:06:02;;;;;;;;;;;;;;;-0.57;87.86;97344.41;5117070;28;19963;-70
2023/03/28 05:08:28;;;;;;;;;;;;;;;-0.58;87.70;97351.31;5117368;28;20294;-70
2023/03/28 05:10:57;;;;;;;;;;;;;;;-0.59;87.68;97348.88;5116698;28;19939;-75
2023/03/28 05:13:24;;;;;;;;;;;;;;;-0.60;87.88;97354.97;5115741;28;19943;-75
2023/03/28 05:15:50;;;;;;;;;;;;;;;-0.63;87.71;97356.84;5117110;28;19954;-75
2023/03/28 05:18:15;;;;;;;;;;;;;;;-0.64;87.94;97360.34;5116411;28;19947;-76
2023/03/28 05:20:42;;;;;;;;;;;;;;;-0.67;87.75;97362.38;5116666;28;19963;-75
2023/03/28 05:23:08;;;;;;;;;;;;;;;-0.68;88.16;97365.88;5116215;28;19939;-75
2023/03/28 05:25:35;;;;;;;;;;;;;;;-0.66;87.81;97376.88;5116704;28;19949;-70
2023/03/28 05:28:02;;;;;;;;;;;;;;;-0.67;88.27;97380.41;5116132;28;19940;-70
2023/03/28 05:30:27;;;;;;;;;;;;;;;-0.68;87.89;97374.44;5116626;28;19945;-69
2023/03/28 05:32:53;;;;;;;;;;;;;;;-0.66;87.67;97379.47;5116607;28;19947;-69
2023/03/28 05:35:19;;;;;;;;;;;;;;;-0.63;87.84;97385.19;5115925;28;19941;-70
2023/03/28 05:37:45;;;;;;;;;;;;;;;-0.62;88.01;97384.22;5115896;28;19959;-69
2023/03/28 05:40:12;;;;;;;;;;;;;;;-0.61;87.70;97387.63;5116058;28;20021;-69
2023/03/28 05:42:38;;;;;;;;;;;;;;;-0.60;87.79;97396.19;5116076;28;19943;-72
2023/03/28 05:45:05;;;;;;;;;;;;;;;-0.57;87.84;97394.16;5115846;28;19939;-70
2023/03/28 05:47:30;;;;;;;;;;;;;;;-0.13;87.41;97394.84;5116234;28;19937;-72
2023/03/28 05:49:56;;;;;;;;;;;;;;;0.61;85.68;97391.25;5115631;28;20000;-72
2023/03/28 05:52:22;;;;;;;;;;;;;;;1.41;83.38;97364.41;5115127;28;19943;-72
2023/03/28 05:54:48;;;;;;;;;;;;;;;2.17;81.21;97355.78;5115724;28;19941;-72
2023/03/28 05:57:14;;;;;;;;;;;;;;;2.88;78.75;97341.34;5116322;28;20386;-71
2023/03/28 05:59:41;;;;;;;;;;;;;;;3.48;77.38;97338.13;5114366;28;19955;-71
2023/03/28 06:02:11;;;;;;;;;;;;;;;4.01;75.37;97336.34;5115261;28;19973;-71
2023/03/28 06:04:38;;;;;;;;;;;;;;;4.46;73.67;97323.09;5115199;28;19946;-75
2023/03/28 06:07:05;;;;;;;;;;;;;;;4.85;72.08;97314.75;5097165;28;19941;-74
2023/03/28 06:09:31;;;;;;;;;;;;;;;5.23;71.10;97317.69;5115288;28;19949;-75
2023/03/28 06:11:57;;;;;;;;;;;;;;;5.59;70.37;97321.75;5115015;28;19950;-75
2023/03/28 06:14:23;;;;;;;;;;;;;;;5.84;69.28;97323.34;5116140;28;19952;-75
2023/03/28 06:16:49;;;;;;;;;;;;;;;6.02;68.44;97327.53;5115291;28;19948;-75
2023/03/28 06:19:15;;;;;;;;;;;;;;;6.10;67.99;97337.94;5114609;28;19999;-74
2023/03/28 06:21:41;;;;;;;;;;;;;;;6.18;67.27;97334.50;5115140;28;19942;-69
2023/03/28 06:24:06;;;;;;;;;;;;;;;6.35;67.84;97343.06;5115251;28;19994;-74
2023/03/28 06:26:32;;;;;;;;;;;;;;;6.50;67.24;97339.56;5114952;28;19988;-74
2023/03/28 06:28:58;;;;;;;;;;;;;;;6.65;67.04;97346.69;5115731;28;19935;-74
2023/03/28 06:31:24;;;;;;;;;;;;;;;6.79;66.98;97355.59;5115352;28;19946;-75
2023/03/28 06:33:50;;;;;;;;;;;;;;;6.85;66.04;97355.69;5115721;28;20033;-75
2023/03/28 06:36:16;;;;;;;;;;;;;;;6.88;65.72;97346.72;5114650;28;20006;-75
2023/03/28 06:38:41;;;;;;;;;;;;;;;6.75;64.97;97344.66;5115036;28;19939;-73
2023/03/28 06:41:07;;;;;;;;;;;;;;;6.62;65.49;97360.88;5114522;28;19955;-72
2023/03/28 06:43:33;;;;;;;;;;;;;;;6.56;65.88;97368.56;5115035;28;19941;-72
2023/03/28 06:45:59;;;;;;;;;;;;;;;6.55;65.46;97362.53;5115443;28;19988;-72
2023/03/28 06:48:30;;;;;;;;;;;;;;;6.51;65.23;97369.06;5115511;28;19948;-72
2023/03/28 06:50:59;;;;;;;;;;;;;;;6.41;65.76;97366.66;5114938;28;20400;-72
2023/03/28 06:53:25;;;;;;;;;;;;;;;6.34;66.23;97372.69;5114327;28;19949;-71
2023/03/28 06:55:52;;;;;;;;;;;;;;;6.24;66.14;97370.31;5114477;28;19950;-70
2023/03/28 06:58:18;;;;;;;;;;;;;;;6.08;63.97;97352.91;5113328;28;19944;-70
2023/03/28 07:00:44;;;;;;;;;;;;;;;5.96;67.15;97380.28;5114604;28;20438;-70
2023/03/28 07:03:10;;;;;;;;;;;;;;;5.91;66.97;97372.94;5115292;28;19943;-70
2023/03/28 07:05:40;;;;;;;;;;;;;;;5.82;66.24;97363.53;5114347;28;19941;-70
2023/03/28 07:08:07;;;;;;;;;;;;;;;5.70;65.87;97365.66;5114423;28;19935;-70
2023/03/28 07:10:33;;;;;;;;;;;;;;;5.68;65.62;97357.19;5114193;28;19940;-70
2023/03/28 07:12:59;;;;;;;;;;;;;;;5.61;67.45;97383.06;5114299;28;19941;-70
2023/03/28 07:15:25;;;;;;;;;;;;;;;5.63;67.68;97383.72;5113906;27;19951;-72
2023/03/28 07:17:52;;;;;;;;;;;;;;;5.69;66.42;97382.22;5113879;28;19943;-78
2023/03/28 07:20:18;;;;;;;;;;;;;;;5.85;87.93;97468.13;5113832;28;19957;-80
2023/03/28 07:22:44;;;;;;;;;;;;;;;6.39;73.83;97399.88;5114147;28;20292;-77
2023/03/28 07:25:10;;;;;;;;;;;;;;;6.54;67.56;97366.13;5114725;28;19946;-75
2023/03/28 07:27:36;;;;;;;;;;;;;;;6.42;66.52;97373.47;5112727;28;19945;-75
2023/03/28 07:30:03;;;;;;;;;;;;;;;6.28;67.75;97384.63;5114159;28;20007;-76
2023/03/28 07:32:29;;;;;;;;;;;;;;;6.27;67.97;97390.78;5114377;28;19950;-75
2023/03/28 07:34:55;;;;;;;;;;;;;;;6.22;67.32;97393.09;5115297;28;19946;-74
2023/03/28 07:37:21;;;;;;;;;;;;;;;6.18;67.93;97404.84;5118242;28;19949;-73
2023/03/28 07:39:47;;;;;;;;;;;;;;;6.38;66.38;97397.44;5118040;28;19963;-72
2023/03/28 07:42:13;;;;;;;;;;;;;;;6.36;65.82;97396.78;5118185;28;19946;-73
2023/03/28 07:44:39;;;;;;;;;;;;;;;6.35;65.98;97395.19;5118611;28;20390;-73
2023/03/28 07:47:06;;;;;;;;;;;;;;;6.21;66.45;97397.47;5118557;28;19942;-72
2023/03/28 07:49:32;;;;;;;;;;;;;;;6.04;66.42;97406.31;5117924;28;19950;-72
2023/03/28 07:51:58;;;;;;;;;;;;;;;5.92;68.58;97424.03;5116819;28;19944;-74
2023/03/28 07:54:27;;;;;;;;;;;;;;;5.94;67.42;97411.66;5118098;28;19940;-74
2023/03/28 07:56:53;;;;;;;;;;;;;;;5.97;68.42;97421.78;5118146;28;19954;-75
2023/03/28 07:59:19;;;;;;;;;;;;;;;6.10;67.91;97423.88;5116505;28;20387;-76
2023/03/28 08:01:46;;;;;;;;;;;;;;;6.17;65.08;97409.19;5116906;28;19983;-75
2023/03/28 08:04:12;;;;;;;;;;;;;;;6.03;66.69;97413.31;5116879;28;19949;-76
2023/03/28 08:06:39;;;;;;;;;;;;;;;5.98;69.29;97426.00;5117248;28;19949;-75
2023/03/28 08:09:06;;;;;;;;;;;;;;;6.12;68.56;97424.53;5116885;28;20411;-75
2023/03/28 08:11:33;;;;;;;;;;;;;;;6.30;68.62;97422.53;5116214;28;20306;-71
2023/03/28 08:14:00;;;;;;;;;;;;;;;6.46;67.63;97428.69;5116201;28;19943;-71
2023/03/28 08:16:26;;;;;;;;;;;;;;;6.57;68.12;97430.91;5116224;28;19943;-72
2023/03/28 08:18:52;;;;;;;;;;;;;;;6.61;66.42;97416.56;5115574;28;19939;-72
2023/03/28 08:21:18;;;;;;;;;;;;;;;6.64;66.09;97418.06;5116056;28;19998;-72
2023/03/28 08:23:44;;;;;;;;;;;;;;;6.61;66.54;97426.19;5114924;28;19944;-71
2023/03/28 08:26:11;;;;;;;;;;;;;;;6.63;65.35;97421.63;5116912;28;19941;-71
2023/03/28 08:28:37;;;;;;;;;;;;;;;6.50;63.38;97398.69;5116021;28;19947;-75
2023/03/28 08:31:08;;;;;;;;;;;;;;;6.44;66.38;97422.81;5116522;28;19942;-71
2023/03/28 08:33:34;;;;;;;;;;;;;;;6.52;64.86;97407.16;5116800;28;19937;-71
2023/03/28 08:36:01;;;;;;;;;;;;;;;6.51;63.11;97402.94;5115906;28;20017;-71
2023/03/28 08:38:28;;;;;;;;;;;;;;;6.50;64.26;97411.72;5116785;28;20289;-71
2023/03/28 08:41:02;;;;;;;;;;;;;;;6.54;63.75;97410.41;5115760;28;19958;-71
2023/03/28 08:43:28;;;;;;;;;;;;;;;6.66;65.51;97413.47;5116650;28;19945;-71
2023/03/28 08:45:58;;;;;;;;;;;;;;;6.85;63.55;97405.25;5114243;28;20302;-71
2023/03/28 08:48:25;;;;;;;;;;;;;;;7.01;64.65;97413.97;5114696;28;19948;-74
2023/03/28 08:50:59;;;;;;;;;;;;;;;6.84;62.10;97405.41;5115963;28;20308;-77
2023/03/28 08:53:29;;;;;;;;;;;;;;;6.86;64.05;97417.28;5116342;28;19950;-76
2023/03/28 08:55:56;;;;;;;;;;;;;;;6.91;63.45;97422.00;5116236;28;19947;-77
2023/03/28 08:58:25;;;;;;;;;;;;;;;6.97;59.20;97404.84;5116464;28;19943;-78
2023/03/28 09:00:51;;;;;;;;;;;;;;;6.78;61.71;97416.50;5052147;28;1804953;-77
2023/03/28 09:03:20;;;;;;;;;;;;;;;6.76;62.54;97419.31;5116029;28;19944;-78
2023/03/28 09:06:00;;;;;;;;;;;;;;;6.90;69.92;97451.66;5117528;28;19944;-69
2023/03/28 09:08:29;;;;;;;;;;;;;;;7.20;61.58;97412.72;5117306;28;19951;-71
2023/03/28 09:10:55;;;;;;;;;;;;;;;7.25;58.60;97402.59;5116588;28;19945;-70
2023/03/28 09:13:27;;;;;;;;;;;;;;;7.39;57.72;97398.41;5115599;28;19942;-71
2023/03/28 09:15:53;;;;;;;;;;;;;;;6.95;58.72;97414.63;5116910;28;19950;-71
2023/03/28 09:18:22;;;;;;;;;;;;;;;6.46;59.33;97419.06;5116519;28;19948;-70
2023/03/28 09:20:55;;;;;;;;;;;;;;;6.18;61.26;97433.47;5116683;28;19965;-71
2023/03/28 09:23:30;;;;;;;;;;;;;;;6.34;58.57;97411.78;5116095;28;19938;-71
2023/03/28 09:25:59;;;;;;;;;;;;;;;6.62;60.45;97430.44;5114993;28;19939;-70
2023/03/28 09:28:28;;;;;;;;;;;;;;;6.88;56.93;97407.50;5116034;28;20450;-69
2023/03/28 09:30:55;;;;;;;;;;;;;;;7.03;59.04;97423.22;5116020;28;19942;-69
2023/03/28 09:33:30;;;;;;;;;;;;;;;7.21;58.35;97417.75;5116445;28;19939;-69
2023/03/28 09:35:56;;;;;;;;;;;;;;;7.46;57.71;97415.81;5115888;28;20409;-68
2023/03/28 09:38:30;;;;;;;;;;;;;;;7.58;58.24;97416.22;5115876;28;19985;-69
2023/03/28 09:40:57;;;;;;;;;;;;;;;7.50;56.51;97411.06;5116158;28;19959;-68
2023/03/28 09:43:32;;;;;;;;;;;;;;;7.40;54.17;97406.06;5114825;28;20409;-74
2023/03/28 09:45:59;;;;;;;;;;;;;;;7.32;53.43;97399.09;5115755;28;19945;-70
2023/03/28 09:48:29;;;;;;;;;;;;;;;7.25;53.72;97406.00;5116185;28;19945;-70
2023/03/28 09:50:56;;;;;;;;;;;;;;;7.04;53.25;97404.00;5115616;28;19963;-70
2023/03/28 09:53:24;;;;;;;;;;;;;;;6.82;56.69;97423.00;5115515;28;19949;-71
2023/03/28 09:55:52;;;;;;;;;;;;;;;6.67;53.16;97402.88;5116397;28;20396;-70
2023/03/28 09:58:18;;;;;;;;;;;;;;;6.88;55.66;97410.09;5114689;28;19950;-70
2023/03/28 10:00:48;;;;;;;;;;;;;;;7.15;56.23;97413.22;5115191;28;20321;-70
2023/03/28 10:03:22;;;;;;;;;;;;;;;7.42;55.97;97401.47;5115965;28;19949;-73
2023/03/28 10:05:49;;;;;;;;;;;;;;;7.55;53.75;97398.28;5116165;28;19948;-74
2023/03/28 10:08:21;;;;;;;;;;;;;;;7.47;52.50;97404.38;5115794;28;19944;-73
2023/03/28 10:10:59;;;;;;;;;;;;;;;7.38;53.32;97394.19;5115835;28;19953;-74
2023/03/28 10:13:25;;;;;;;;;;;;;;;7.45;55.74;97406.34;5116127;28;19945;-74
2023/03/28 10:15:52;;;;;;;;;;;;;;;7.56;54.17;97406.91;5116004;28;19946;-74
2023/03/28 10:18:25;;;;;;;;;;;;;;;7.71;52.20;97398.16;5115137;28;20393;-76
2023/03/28 10:20:52;;;;;;;;;;;;;;;7.70;54.27;97400.94;5115398;28;19962;-70
2023/03/28 10:23:20;;;;;;;;;;;;;;;7.75;53.42;97406.47;5115345;28;19945;-71
2023/03/28 10:25:49;;;;;;;;;;;;;;;7.87;53.07;97399.84;5115629;28;19955;-71
2023/03/28 10:28:19;;;;;;;;;;;;;;;8.03;51.48;97401.47;5115215;28;19945;-71
2023/03/28 10:30:51;;;;;;;;;;;;;;;8.12;50.97;97397.78;5114900;28;19941;-71
2023/03/28 10:33:17;;;;;;;;;;;;;;;8.29;53.17;97410.69;5115737;28;19934;-71
2023/03/28 10:35:44;;;;;;;;;;;;;;;8.47;49.65;97395.50;5114710;28;19949;-72
2023/03/28 10:38:14;;;;;;;;;;;;;;;8.49;50.06;97395.31;5114810;28;19940;-68
2023/03/28 10:40:41;;;;;;;;;;;;;;;8.64;53.03;97401.34;5115471;28;19962;-70
2023/03/28 10:43:11;;;;;;;;;;;;;;;8.69;48.99;97401.63;5114748;28;19946;-71
2023/03/28 10:45:39;;;;;;;;;;;;;;;8.55;51.66;97402.44;5114665;28;19937;-71
2023/03/28 10:48:15;;;;;;;;;;;;;;;8.41;53.91;97405.84;5115260;28;19974;-71
2023/03/28 10:50:41;;;;;;;;;;;;;;;8.37;52.80;97401.94;5114547;28;19934;-71
2023/03/28 10:53:16;;;;;;;;;;;;;;;8.48;53.44;97404.13;5115347;28;20410;-71
2023/03/28 10:55:55;;;;;;;;;;;;;;;8.46;48.89;97393.88;5114978;28;19938;-73
2023/03/28 10:58:25;;;;;;;;;;;;;;;8.12;51.03;97391.75;5114779;28;19963;-71
2023/03/28 11:00:57;;;;;;;;;;;;;;;7.95;52.44;97393.69;5114372;28;19973;-69
2023/03/28 11:03:33;;;;;;;;;;;;;;;7.86;53.60;97395.59;5114981;28;19945;-70
2023/03/28 11:06:16;;;;;;;;;;;;;;;7.99;50.03;97383.72;5115234;28;20305;-69
2023/03/28 11:08:42;;;;;;;;;;;;;;;8.37;50.89;97381.84;5114679;28;20000;-69
2023/03/28 11:11:11;;;;;;;;;;;;;;;8.48;50.23;97381.44;5114864;28;20405;-68
2023/03/28 11:13:40;;;;;;;;;;;;;;;8.51;50.53;97382.88;5114465;28;19941;-73
2023/03/28 11:16:13;;;;;;;;;;;;;;;8.51;47.02;97382.88;5114589;28;19969;-73
2023/03/28 11:18:39;;;;;;;;;;;;;;;8.41;50.20;97384.94;5113844;28;19946;-75
2023/03/28 11:21:14;;;;;;;;;;;;;;;8.50;48.65;97381.25;5114124;28;19991;-75
2023/03/28 11:23:44;;;;;;;;;;;;;;;8.62;46.59;97365.91;5114937;28;19939;-75
2023/03/28 11:26:23;;;;;;;;;;;;;;;8.62;47.96;97365.91;5114035;28;19952;-75
2023/03/28 11:29:12;;;;;;;;;;;;;;;8.75;48.11;97363.44;5115145;28;19950;-75
2023/03/28 11:31:52;;;;;;;;;;;;;;;9.06;49.40;97371.03;5114195;28;19947;-76
2023/03/28 11:34:22;;;;;;;;;;;;;;;9.36;53.90;97370.94;5114670;28;19955;-70
2023/03/28 11:36:52;;;;;;;;;;;;;;;9.92;49.76;97352.66;5114342;28;19962;-72
2023/03/28 11:39:30;;;;;;;;;;;;;;;10.14;47.07;97345.56;5114355;28;19949;-73
2023/03/28 11:42:01;;;;;;;;;;;;;;;10.17;45.75;97341.72;5113513;28;19956;-73
2023/03/28 11:44:32;;;;;;;;;;;;;;;10.06;45.89;97332.59;5114788;28;19942;-73
2023/03/28 11:47:03;;;;;;;;;;;;;;;9.90;44.31;97338.13;5113870;28;20407;-73
2023/03/28 11:49:35;;;;;;;;;;;;;;;9.70;44.81;97337.97;5113736;28;20391;-73
2023/03/28 11:52:07;;;;;;;;;;;;;;;9.41;41.74;97328.47;5114787;28;19938;-68
2023/03/28 11:54:52;;;;;;;;;;;;;;;9.22;43.08;97332.53;5114321;28;19950;-73
2023/03/28 11:57:28;;;;;;;;;;;;;;;9.08;43.18;97329.81;5114378;28;19945;-72
2023/03/28 11:59:57;;;;;;;;;;;;;;;8.91;46.66;97325.81;5114617;28;19934;-72
2023/03/28 12:02:43;;;;;;;;;;;;;;;8.89;45.21;97327.78;5113684;28;19975;-73
2023/03/28 12:05:18;;;;;;;;;;;;;;;8.71;41.08;97321.19;5114142;28;19950;-72
2023/03/28 12:08:03;;;;;;;;;;;;;;;8.69;42.08;97317.94;5113685;28;19954;-72
2023/03/28 12:10:35;;;;;;;;;;;;;;;8.77;44.08;97322.22;5113651;28;19952;-73
2023/03/28 12:13:10;;;;;;;;;;;;;;;8.81;44.12;97314.84;5113692;28;19941;-69
2023/03/28 12:15:46;;;;;;;;;;;;;;;8.76;42.98;97317.19;5114100;28;19943;-69
2023/03/28 12:18:16;;;;;;;;;;;;;;;8.84;44.67;97306.59;5114495;28;19947;-68
2023/03/28 12:21:06;;;;;;;;;;;;;;;8.96;43.68;97312.16;5114160;28;19954;-68
2023/03/28 12:23:31;;;;;;;;;;;;;;;9.23;42.99;97298.34;5111753;28;20270;-69
2023/03/28 12:26:20;;;;;;;;;;;;;;;9.28;43.37;97303.81;5117296;28;19942;-68
2023/03/28 12:28:49;;;;;;;;;;;;;;;9.22;43.21;97290.66;5117220;28;20392;-73
2023/03/28 12:31:16;;;;;;;;;;;;;;;9.36;44.21;97292.41;5117321;28;20004;-72
2023/03/28 12:33:48;;;;;;;;;;;;;;;9.58;42.19;97277.47;5117436;28;19937;-72
2023/03/28 12:36:16;;;;;;;;;;;;;;;9.70;45.22;97285.59;5117450;28;19958;-72
2023/03/28 12:38:52;;;;;;;;;;;;;;;9.74;43.30;97284.22;5117924;28;19944;-73
2023/03/28 12:41:21;;;;;;;;;;;;;;;9.92;43.21;97273.25;5117587;28;20420;-73
2023/03/28 12:43:52;;;;;;;;;;;;;;;10.20;45.22;97275.00;5116960;28;19939;-73
2023/03/28 12:46:22;;;;;;;;;;;;;;;10.28;45.73;97272.22;5117381;28;19948;-70
2023/03/28 12:48:50;;;;;;;;;;;;;;;10.66;54.55;97274.41;5116856;28;19934;-68
2023/03/28 12:51:19;;;;;;;;;;;;;;;11.31;56.53;97272.06;5117133;28;19948;-72
2023/03/28 12:53:58;;;;;;;;;;;;;;;11.51;43.26;97254.50;5117549;28;19939;-73
2023/03/28 12:56:24;;;;;;;;;;;;;;;11.17;40.48;97245.81;5117470;28;19944;-72
2023/03/28 12:58:51;;;;;;;;;;;;;;;10.95;40.42;97258.31;5117507;28;19945;-73
2023/03/28 13:01:18;;;;;;;;;;;;;;;10.87;41.78;97255.88;5116494;28;20445;-72
2023/03/28 13:04:02;;;;;;;;;;;;;;;10.78;42.31;97257.06;5116612;28;19953;-71
2023/03/28 13:06:44;;;;;;;;;;;;;;;10.59;40.54;97244.72;5117642;28;20275;-71